Time;durP1;ratioP1;P1;durP2;ratioP2;P2;SDS_P1;SDS_P2;PMS_P1;PMS_P2;Temp;Humidity;BMP_temperature;BMP_pressure;BME280_temperature;BME280_humidity;BME280_pressure;Samples;Min_cycle;Max_cycle;Signal;HPM_P1;HPM_P2
2022/07/26 00:02:08;;;;;;;;;;;29.30;70.40;;;;;;5090426;28;19911;-69
2022/07/26 00:04:34;;;;;;;;;;;29.30;70.40;;;;;;5090583;28;20263;-69
2022/07/26 00:07:00;;;;;;;;;;;29.40;70.20;;;;;;5090504;28;19911;-70
2022/07/26 00:09:26;;;;;;;;;;;29.30;70.20;;;;;;5090461;28;19904;-69
2022/07/26 00:11:52;;;;;;;;;;;29.30;70.20;;;;;;5090119;28;19999;-69
2022/07/26 00:14:18;;;;;;;;;;;29.30;70.10;;;;;;5090536;28;19927;-69
2022/07/26 00:16:43;;;;;;;;;;;29.20;70.00;;;;;;5090295;28;19919;-70
2022/07/26 00:19:09;;;;;;;;;;;29.20;70.00;;;;;;5089864;28;20214;-70
2022/07/26 00:21:36;;;;;;;;;;;29.20;70.00;;;;;;5088738;28;20324;-70
2022/07/26 00:24:04;;;;;;;;;;;29.20;69.80;;;;;;5090649;28;19908;-69
2022/07/26 00:26:30;;;;;;;;;;;29.20;69.90;;;;;;5094328;28;20448;-69
2022/07/26 00:28:56;;;;;;;;;;;29.20;70.00;;;;;;5092455;28;19947;-69
2022/07/26 00:31:22;;;;;;;;;;;29.20;70.10;;;;;;5093881;28;19915;-68
2022/07/26 00:33:48;;;;;;;;;;;29.20;70.20;;;;;;5093542;28;20348;-68
2022/07/26 00:36:14;;;;;;;;;;;29.20;70.10;;;;;;5093773;28;19911;-69
2022/07/26 00:38:40;;;;;;;;;;;29.20;70.00;;;;;;5093698;28;20002;-69
2022/07/26 00:41:06;;;;;;;;;;;29.20;69.80;;;;;;5093935;28;19940;-69
2022/07/26 00:43:32;;;;;;;;;;;29.10;70.60;;;;;;5093881;28;20224;-69
2022/07/26 00:45:58;;;;;;;;;;;29.10;69.90;;;;;;5093882;28;19908;-70
2022/07/26 00:48:24;;;;;;;;;;;29.10;69.90;;;;;;5093837;28;20352;-70
2022/07/26 00:50:52;;;;;;;;;;;29.10;69.70;;;;;;5093558;28;19904;-70
2022/07/26 00:53:19;;;;;;;;;;;29.00;69.90;;;;;;5093616;28;19994;-69
2022/07/26 00:55:45;;;;;;;;;;;29.00;69.90;;;;;;5093516;28;20244;-70
2022/07/26 00:58:12;;;;;;;;;;;28.90;69.80;;;;;;5093472;28;20301;-70
2022/07/26 01:00:38;;;;;;;;;;;28.90;69.80;;;;;;5093458;28;20356;-70
2022/07/26 01:03:04;;;;;;;;;;;28.90;69.80;;;;;;5093390;28;19904;-70
2022/07/26 01:05:31;;;;;;;;;;;28.80;69.90;;;;;;5093270;28;19919;-71
2022/07/26 01:07:57;;;;;;;;;;;28.80;70.00;;;;;;5093257;28;19904;-70
2022/07/26 01:10:23;;;;;;;;;;;28.80;70.10;;;;;;5093340;28;19914;-70
2022/07/26 01:12:49;;;;;;;;;;;28.80;70.30;;;;;;5093209;28;20283;-70
2022/07/26 01:15:16;;;;;;;;;;;28.70;70.60;;;;;;5093325;28;19904;-70
2022/07/26 01:17:42;;;;;;;;;;;28.70;70.50;;;;;;5093317;28;19937;-70
2022/07/26 01:20:09;;;;;;;;;;;28.70;70.40;;;;;;5093183;28;20332;-70
2022/07/26 01:22:35;;;;;;;;;;;28.60;70.50;;;;;;5093801;28;20033;-70
2022/07/26 01:25:01;;;;;;;;;;;28.70;70.30;;;;;;5093474;28;20325;-70
2022/07/26 01:27:26;;;;;;;;;;;28.80;70.30;;;;;;5093169;28;19904;-70
2022/07/26 01:29:52;;;;;;;;;;;28.80;70.20;;;;;;5093483;28;20236;-70
2022/07/26 01:32:18;;;;;;;;;;;28.80;70.20;;;;;;5091784;28;19904;-70
2022/07/26 01:34:44;;;;;;;;;;;28.80;70.00;;;;;;5091981;28;19910;-70
2022/07/26 01:37:10;;;;;;;;;;;28.80;69.90;;;;;;5092918;28;19904;-70
2022/07/26 01:39:36;;;;;;;;;;;28.80;69.70;;;;;;5092846;28;19916;-71
2022/07/26 01:42:02;;;;;;;;;;;28.80;69.90;;;;;;5090956;28;19912;-69
2022/07/26 01:44:28;;;;;;;;;;;28.80;69.90;;;;;;5091018;28;19972;-70
2022/07/26 01:46:54;;;;;;;;;;;28.80;70.20;;;;;;5092419;28;20347;-69
2022/07/26 01:49:20;;;;;;;;;;;28.80;70.20;;;;;;5092603;28;19904;-70
2022/07/26 01:51:45;;;;;;;;;;;28.70;70.30;;;;;;5092486;28;20371;-70
2022/07/26 01:54:11;;;;;;;;;;;28.70;70.30;;;;;;5092514;28;19908;-70
2022/07/26 01:56:37;;;;;;;;;;;28.60;70.30;;;;;;5092353;28;19911;-69
2022/07/26 01:59:03;;;;;;;;;;;28.70;70.30;;;;;;5092415;28;19904;-70
2022/07/26 02:01:29;;;;;;;;;;;28.70;70.30;;;;;;5092175;28;19904;-70
2022/07/26 02:03:55;;;;;;;;;;;28.70;70.40;;;;;;5092193;28;20294;-70
2022/07/26 02:06:20;;;;;;;;;;;28.70;70.40;;;;;;5092219;28;19975;-70
2022/07/26 02:08:46;;;;;;;;;;;28.70;70.50;;;;;;5092098;28;19904;-70
2022/07/26 02:11:12;;;;;;;;;;;28.70;70.40;;;;;;5091983;28;19977;-69
2022/07/26 02:13:41;;;;;;;;;;;28.60;70.70;;;;;;5091822;28;19904;-69
2022/07/26 02:16:09;;;;;;;;;;;28.50;70.70;;;;;;5091895;28;19930;-70
2022/07/26 02:18:39;;;;;;;;;;;28.50;70.80;;;;;;5091686;28;19911;-69
2022/07/26 02:21:06;;;;;;;;;;;28.50;71.10;;;;;;5091832;28;19920;-70
2022/07/26 02:23:32;;;;;;;;;;;28.40;71.00;;;;;;5091578;28;19904;-69
2022/07/26 02:25:58;;;;;;;;;;;28.40;71.10;;;;;;5091269;28;19915;-70
2022/07/26 02:28:24;;;;;;;;;;;28.30;71.30;;;;;;5091220;28;19904;-69
2022/07/26 02:30:50;;;;;;;;;;;28.20;71.30;;;;;;5091965;28;20058;-69
2022/07/26 02:33:16;;;;;;;;;;;28.20;71.50;;;;;;5091778;28;19989;-69
2022/07/26 02:35:42;;;;;;;;;;;28.30;71.30;;;;;;5091775;28;20016;-69
2022/07/26 02:38:10;;;;;;;;;;;28.40;70.90;;;;;;5091458;28;19904;-70
2022/07/26 02:40:36;;;;;;;;;;;28.50;70.80;;;;;;5091574;28;19977;-70
2022/07/26 02:43:02;;;;;;;;;;;28.50;70.60;;;;;;5091425;28;19915;-69
2022/07/26 02:45:28;;;;;;;;;;;28.40;70.70;;;;;;5089843;28;19938;-69
2022/07/26 02:47:54;;;;;;;;;;;28.40;70.80;;;;;;5091236;28;20245;-70
2022/07/26 02:50:21;;;;;;;;;;;28.40;70.70;;;;;;5091199;28;20339;-69
2022/07/26 02:52:47;;;;;;;;;;;28.40;70.80;;;;;;5091643;28;20257;-69
2022/07/26 02:55:16;;;;;;;;;;;28.40;70.80;;;;;;5091430;28;19915;-69
2022/07/26 02:57:42;;;;;;;;;;;28.40;70.90;;;;;;5091645;28;19973;-69
2022/07/26 03:00:09;;;;;;;;;;;28.30;70.90;;;;;;5091554;28;20314;-69
2022/07/26 03:02:35;;;;;;;;;;;28.30;70.90;;;;;;5091522;28;19986;-70
2022/07/26 03:05:02;;;;;;;;;;;28.30;70.80;;;;;;5091858;28;20293;-69
2022/07/26 03:07:28;;;;;;;;;;;28.30;70.70;;;;;;5091464;28;19983;-69
2022/07/26 03:09:53;;;;;;;;;;;28.30;70.90;;;;;;5091673;28;20012;-68
2022/07/26 03:12:19;;;;;;;;;;;28.30;70.60;;;;;;5091535;28;19952;-68
2022/07/26 03:14:45;;;;;;;;;;;28.30;70.70;;;;;;5091517;28;20105;-69
2022/07/26 03:17:11;;;;;;;;;;;28.30;70.80;;;;;;5091300;28;19926;-69
2022/07/26 03:19:37;;;;;;;;;;;28.30;70.90;;;;;;5091123;28;19989;-69
2022/07/26 03:22:02;;;;;;;;;;;28.30;70.80;;;;;;5092354;28;19923;-69
2022/07/26 03:24:28;;;;;;;;;;;28.30;70.70;;;;;;5092304;28;20041;-69
2022/07/26 03:26:54;;;;;;;;;;;28.20;70.80;;;;;;5092650;28;19911;-69
2022/07/26 03:29:20;;;;;;;;;;;28.20;71.00;;;;;;5092361;28;20312;-70
2022/07/26 03:32:01;;;;;;;;;;;28.20;71.00;;;;;;5068428;28;19920;-69
2022/07/26 03:34:27;;;;;;;;;;;28.10;71.30;;;;;;5091302;28;20003;-70
2022/07/26 03:36:53;;;;;;;;;;;28.20;71.30;;;;;;5091604;28;19908;-69
2022/07/26 03:39:19;;;;;;;;;;;28.10;71.20;;;;;;5091577;28;19919;-69
2022/07/26 03:41:44;;;;;;;;;;;28.10;71.30;;;;;;5091443;28;19904;-69
2022/07/26 03:44:10;;;;;;;;;;;28.10;71.70;;;;;;5091645;28;20341;-69
2022/07/26 03:46:36;;;;;;;;;;;28.10;71.40;;;;;;5091331;28;19904;-69
2022/07/26 03:49:02;;;;;;;;;;;28.00;71.60;;;;;;5091334;28;20321;-69
2022/07/26 03:51:28;;;;;;;;;;;28.00;71.60;;;;;;5090864;28;19912;-71
2022/07/26 03:53:53;;;;;;;;;;;28.10;71.30;;;;;;5090636;28;20323;-69
2022/07/26 03:56:31;;;;;;;;;;;28.10;71.30;;;;;;5090800;28;19916;-69
2022/07/26 03:58:58;;;;;;;;;;;28.10;71.40;;;;;;5093321;28;19904;-69
2022/07/26 04:01:24;;;;;;;;;;;28.10;71.40;;;;;;5095239;28;20005;-69
2022/07/26 04:03:50;;;;;;;;;;;28.00;71.50;;;;;;5095860;28;19979;-70
2022/07/26 04:06:16;;;;;;;;;;;28.00;71.70;;;;;;5094053;28;20451;-69
2022/07/26 04:08:41;;;;;;;;;;;28.00;71.90;;;;;;5096031;28;20448;-69
2022/07/26 04:11:07;;;;;;;;;;;28.00;71.70;;;;;;5095437;28;20267;-69
2022/07/26 04:13:34;;;;;;;;;;;28.00;72.00;;;;;;5095440;28;19904;-68
2022/07/26 04:16:00;;;;;;;;;;;27.90;72.30;;;;;;5095319;28;20301;-69
2022/07/26 04:18:26;;;;;;;;;;;27.90;72.40;;;;;;5096044;28;19903;-68
2022/07/26 04:20:53;;;;;;;;;;;27.90;72.60;;;;;;5096266;28;20322;-69
2022/07/26 04:23:18;;;;;;;;;;;27.90;72.70;;;;;;5096854;28;20003;-68
2022/07/26 04:25:44;;;;;;;;;;;27.90;72.80;;;;;;5096607;28;20339;-69
2022/07/26 04:28:11;;;;;;;;;;;27.90;73.00;;;;;;5096467;28;19903;-69
2022/07/26 04:30:37;;;;;;;;;;;27.90;73.20;;;;;;5095657;28;20289;-68
2022/07/26 04:33:03;;;;;;;;;;;27.90;73.30;;;;;;5095687;28;19908;-68
2022/07/26 04:35:29;;;;;;;;;;;27.90;73.40;;;;;;5095887;28;19980;-69
2022/07/26 04:37:55;;;;;;;;;;;27.90;73.30;;;;;;5095769;28;19911;-70
2022/07/26 04:40:22;;;;;;;;;;;27.90;73.40;;;;;;5095888;28;20272;-69
2022/07/26 04:42:49;;;;;;;;;;;27.90;73.60;;;;;;5095978;28;19911;-69
2022/07/26 04:45:14;;;;;;;;;;;27.90;73.70;;;;;;5095739;28;19904;-69
2022/07/26 04:47:43;;;;;;;;;;;27.90;73.90;;;;;;5095932;28;19910;-70
2022/07/26 04:50:10;;;;;;;;;;;27.90;73.80;;;;;;5096234;28;19947;-69
2022/07/26 04:52:36;;;;;;;;;;;27.90;73.90;;;;;;5096013;28;19904;-70
2022/07/26 04:55:02;;;;;;;;;;;27.90;74.00;;;;;;5094319;28;20379;-70
2022/07/26 04:57:27;;;;;;;;;;;28.00;73.90;;;;;;5095615;28;20319;-70
2022/07/26 04:59:53;;;;;;;;;;;28.00;73.90;;;;;;5095544;28;19957;-70
2022/07/26 05:02:19;;;;;;;;;;;28.10;74.00;;;;;;5095464;28;19910;-69
2022/07/26 05:04:45;;;;;;;;;;;28.10;74.00;;;;;;5095661;28;19990;-70
2022/07/26 05:07:11;;;;;;;;;;;28.20;73.90;;;;;;5095443;28;19904;-70
2022/07/26 05:09:36;;;;;;;;;;;28.20;74.10;;;;;;5095804;28;20276;-70
2022/07/26 05:12:02;;;;;;;;;;;28.20;74.10;;;;;;5095218;28;20260;-69
2022/07/26 05:14:28;;;;;;;;;;;28.40;74.00;;;;;;5094915;28;19954;-70
2022/07/26 05:16:54;;;;;;;;;;;29.20;73.20;;;;;;5093719;28;19963;-70
2022/07/26 05:19:20;;;;;;;;;;;30.20;71.30;;;;;;5095327;28;19916;-70
2022/07/26 05:21:45;;;;;;;;;;;31.00;70.00;;;;;;5095279;28;19904;-70
2022/07/26 05:24:11;;;;;;;;;;;31.90;68.40;;;;;;5095592;28;20334;-70
2022/07/26 05:26:37;;;;;;;;;;;32.70;67.30;;;;;;5096261;28;19946;-70
2022/07/26 05:29:03;;;;;;;;;;;33.50;66.20;;;;;;5093788;28;19908;-69
2022/07/26 05:31:29;;;;;;;;;;;34.90;64.50;;;;;;5095013;28;20324;-70
2022/07/26 05:33:54;;;;;;;;;;;36.00;63.30;;;;;;5095118;28;20356;-70
2022/07/26 05:36:20;;;;;;;;;;;36.80;61.50;;;;;;5094984;28;19910;-70
2022/07/26 05:38:46;;;;;;;;;;;36.60;62.10;;;;;;5094886;28;20241;-70
2022/07/26 05:41:12;;;;;;;;;;;36.20;62.80;;;;;;5094707;28;20403;-70
2022/07/26 05:43:38;;;;;;;;;;;36.40;62.80;;;;;;5094790;28;19911;-71
2022/07/26 05:46:04;;;;;;;;;;;36.60;63.00;;;;;;5093296;28;19904;-70
2022/07/26 05:48:29;;;;;;;;;;;37.50;62.10;;;;;;5095099;28;20256;-70
2022/07/26 05:50:55;;;;;;;;;;;38.60;60.60;;;;;;5094537;28;19904;-70
2022/07/26 05:53:21;;;;;;;;;;;38.70;60.70;;;;;;5094161;28;19926;-70
2022/07/26 05:55:47;;;;;;;;;;;38.10;62.20;;;;;;5094293;28;20006;-70
2022/07/26 05:58:13;;;;;;;;;;;37.60;63.20;;;;;;5094222;28;20296;-70
2022/07/26 06:00:38;;;;;;;;;;;36.80;64.40;;;;;;5093935;28;19964;-70
2022/07/26 06:03:22;;;;;;;;;;;37.20;64.30;;;;;;5094103;28;20245;-70
2022/07/26 06:05:49;;;;;;;;;;;37.40;64.40;;;;;;5094205;28;19911;-70
2022/07/26 06:08:14;;;;;;;;;;;38.10;63.60;;;;;;5094090;28;19957;-70
2022/07/26 06:10:40;;;;;;;;;;;38.70;62.70;;;;;;5093896;28;19907;-70
2022/07/26 06:13:06;;;;;;;;;;;39.50;62.00;;;;;;5094393;28;19904;-71
2022/07/26 06:15:32;;;;;;;;;;;40.30;61.00;;;;;;5092333;28;20352;-71
2022/07/26 06:17:58;;;;;;;;;;;40.50;60.60;;;;;;5092396;28;19915;-70
2022/07/26 06:20:23;;;;;;;;;;;40.20;61.20;;;;;;5093637;28;19920;-70
2022/07/26 06:22:50;;;;;;;;;;;39.50;62.40;;;;;;5093956;28;19927;-70
2022/07/26 06:25:16;;;;;;;;;;;39.50;61.90;;;;;;5092041;28;19916;-70
2022/07/26 06:27:42;;;;;;;;;;;39.60;62.00;;;;;;5093813;28;20048;-69
2022/07/26 06:30:08;;;;;;;;;;;39.10;62.40;;;;;;5093391;28;19904;-69
2022/07/26 06:32:34;;;;;;;;;;;38.90;63.00;;;;;;5091867;28;19907;-69
2022/07/26 06:35:00;;;;;;;;;;;39.00;63.00;;;;;;5093021;28;19904;-69
2022/07/26 06:37:25;;;;;;;;;;;38.50;63.60;;;;;;5093045;28;19911;-69
2022/07/26 06:39:52;;;;;;;;;;;38.30;64.10;;;;;;5092789;28;20236;-69
2022/07/26 06:42:17;;;;;;;;;;;38.60;63.80;;;;;;5093149;28;19904;-70
2022/07/26 06:44:43;;;;;;;;;;;39.10;62.90;;;;;;5093341;28;19952;-70
2022/07/26 06:47:09;;;;;;;;;;;38.90;63.00;;;;;;5093178;28;19950;-70
2022/07/26 06:49:35;;;;;;;;;;;38.40;63.50;;;;;;5093332;28;19904;-69
2022/07/26 06:52:01;;;;;;;;;;;38.40;63.80;;;;;;5092978;28;19905;-70
2022/07/26 06:54:26;;;;;;;;;;;39.00;63.00;;;;;;5093409;28;20291;-70
2022/07/26 06:56:52;;;;;;;;;;;40.30;61.50;;;;;;5093041;28;19904;-71
2022/07/26 06:59:18;;;;;;;;;;;40.80;60.40;;;;;;5092898;28;20303;-71
2022/07/26 07:01:44;;;;;;;;;;;40.50;60.90;;;;;;5092744;28;19957;-71
2022/07/26 07:04:09;;;;;;;;;;;40.30;61.60;;;;;;5093074;28;19957;-70
2022/07/26 07:06:35;;;;;;;;;;;40.40;62.20;;;;;;5092728;28;19912;-70
2022/07/26 07:09:01;;;;;;;;;;;39.90;62.40;;;;;;5092544;28;20021;-70
2022/07/26 07:11:27;;;;;;;;;;;39.30;63.00;;;;;;5093019;28;19908;-70
2022/07/26 07:13:53;;;;;;;;;;;39.10;63.40;;;;;;5092616;28;19923;-70
2022/07/26 07:16:19;;;;;;;;;;;38.50;64.10;;;;;;5092501;28;19939;-70
2022/07/26 07:18:45;;;;;;;;;;;38.70;64.80;;;;;;5092633;28;19907;-70
2022/07/26 07:21:11;;;;;;;;;;;38.80;64.90;;;;;;5092954;28;19918;-72
2022/07/26 07:23:36;;;;;;;;;;;39.10;64.10;;;;;;5092496;28;19930;-70
2022/07/26 07:26:03;;;;;;;;;;;39.00;64.40;;;;;;5092461;28;19911;-70
2022/07/26 07:28:32;;;;;;;;;;;39.30;64.10;;;;;;5092395;28;20376;-70
2022/07/26 07:30:58;;;;;;;;;;;38.90;63.80;;;;;;5092380;28;19904;-70
2022/07/26 07:33:24;;;;;;;;;;;38.00;65.70;;;;;;5091534;28;19927;-70
2022/07/26 07:35:50;;;;;;;;;;;37.30;67.20;;;;;;5092009;28;19911;-70
2022/07/26 07:38:16;;;;;;;;;;;37.00;67.70;;;;;;5092361;28;19904;-70
2022/07/26 07:40:42;;;;;;;;;;;36.60;67.50;;;;;;5092119;28;19912;-70
2022/07/26 07:43:08;;;;;;;;;;;36.80;68.30;;;;;;5092299;28;19915;-70
2022/07/26 07:45:34;;;;;;;;;;;36.60;67.90;;;;;;5092318;28;19939;-70
2022/07/26 07:47:59;;;;;;;;;;;36.80;67.70;;;;;;5092471;28;19997;-70
2022/07/26 07:50:25;;;;;;;;;;;37.10;67.70;;;;;;5089430;28;19908;-70
2022/07/26 07:52:51;;;;;;;;;;;37.60;67.00;;;;;;5090513;28;19985;-70
2022/07/26 07:55:17;;;;;;;;;;;38.00;65.70;;;;;;5090659;28;19904;-70
2022/07/26 07:57:43;;;;;;;;;;;38.20;66.70;;;;;;5090659;28;19969;-69
2022/07/26 08:00:09;;;;;;;;;;;38.50;68.20;;;;;;5090678;28;20003;-69
2022/07/26 08:02:35;;;;;;;;;;;38.80;67.70;;;;;;5090449;28;19957;-69
2022/07/26 08:05:00;;;;;;;;;;;38.80;67.90;;;;;;5090499;28;19904;-69
2022/07/26 08:07:26;;;;;;;;;;;38.60;68.60;;;;;;5090489;28;20363;-69
2022/07/26 08:09:52;;;;;;;;;;;38.60;68.80;;;;;;5090364;28;19907;-70
2022/07/26 08:12:18;;;;;;;;;;;38.70;68.60;;;;;;5090426;28;19962;-69
2022/07/26 08:14:43;;;;;;;;;;;38.70;68.10;;;;;;5090213;28;19919;-69
2022/07/26 08:17:09;;;;;;;;;;;38.50;68.90;;;;;;5091570;28;20368;-70
2022/07/26 08:19:35;;;;;;;;;;;38.20;70.30;;;;;;5091742;28;19961;-69
2022/07/26 08:22:03;;;;;;;;;;;38.20;71.00;;;;;;5092123;28;19927;-69
2022/07/26 08:24:29;;;;;;;;;;;38.40;70.60;;;;;;5091843;28;19904;-69
2022/07/26 08:26:54;;;;;;;;;;;38.30;69.90;;;;;;5090412;28;19904;-69
2022/07/26 08:29:20;;;;;;;;;;;38.40;70.20;;;;;;5090014;28;20291;-70
2022/07/26 08:31:47;;;;;;;;;;;38.50;68.80;;;;;;5092124;28;19904;-70
2022/07/26 08:34:13;;;;;;;;;;;38.30;68.30;;;;;;5091596;28;19926;-69
2022/07/26 08:36:39;;;;;;;;;;;38.30;67.90;;;;;;5091550;28;20399;-70
2022/07/26 08:39:04;;;;;;;;;;;38.20;67.30;;;;;;5091968;28;19910;-69
2022/07/26 08:41:30;;;;;;;;;;;38.20;67.90;;;;;;5091731;28;19966;-70
2022/07/26 08:44:03;;;;;;;;;;;38.40;67.30;;;;;;5091948;28;19941;-70
2022/07/26 08:46:29;;;;;;;;;;;38.40;66.70;;;;;;5095588;28;19965;-70
2022/07/26 08:48:55;;;;;;;;;;;38.30;66.40;;;;;;5095593;28;20356;-69
2022/07/26 08:51:22;;;;;;;;;;;38.40;66.20;;;;;;5094899;28;19998;-70
2022/07/26 08:53:48;;;;;;;;;;;38.30;66.20;;;;;;5095244;28;20221;-70
2022/07/26 08:56:14;;;;;;;;;;;38.30;65.80;;;;;;5095077;28;19915;-70
2022/07/26 08:58:42;;;;;;;;;;;38.10;65.40;;;;;;5094963;28;19904;-70
2022/07/26 09:01:12;;;;;;;;;;;37.60;68.10;;;;;;5095080;28;19930;-70
2022/07/26 09:03:39;;;;;;;;;;;37.50;69.00;;;;;;5094722;28;19904;-70
2022/07/26 09:06:15;;;;;;;;;;;37.20;69.70;;;;;;5094817;28;19911;-69
2022/07/26 09:08:41;;;;;;;;;;;37.10;70.00;;;;;;5094489;28;20301;-70
2022/07/26 09:11:22;;;;;;;;;;;36.70;73.40;;;;;;5094866;28;19911;-70
2022/07/26 09:13:49;;;;;;;;;;;37.00;72.30;;;;;;5094733;28;20309;-70
2022/07/26 09:16:15;;;;;;;;;;;37.00;72.80;;;;;;5094650;28;20006;-70
2022/07/26 09:18:41;;;;;;;;;;;36.90;71.90;;;;;;5094440;28;20351;-70
2022/07/26 09:21:06;;;;;;;;;;;36.90;72.20;;;;;;5094785;28;19963;-70
2022/07/26 09:23:40;;;;;;;;;;;36.70;72.60;;;;;;5094487;28;19904;-70
2022/07/26 09:26:05;;;;;;;;;;;36.50;72.80;;;;;;5094577;28;19975;-70
2022/07/26 09:28:31;;;;;;;;;;;36.30;73.10;;;;;;5093032;28;19912;-71
2022/07/26 09:31:04;;;;;;;;;;;36.40;71.90;;;;;;5092849;28;19979;-70
2022/07/26 09:33:50;;;;;;;;;;;36.40;71.80;;;;;;5094500;28;20299;-70
2022/07/26 09:36:16;;;;;;;;;;;36.60;70.80;;;;;;5093907;28;20283;-70
2022/07/26 09:38:43;;;;;;;;;;;36.80;70.10;;;;;;5093911;28;19957;-70
2022/07/26 09:41:20;;;;;;;;;;;36.90;70.10;;;;;;5094221;28;19912;-70
2022/07/26 09:43:46;;;;;;;;;;;37.10;69.60;;;;;;5093842;28;20002;-69
2022/07/26 09:46:12;;;;;;;;;;;36.90;70.60;;;;;;5093644;28;19948;-70
2022/07/26 09:48:38;;;;;;;;;;;36.90;71.70;;;;;;5093738;28;19904;-70
2022/07/26 09:51:07;;;;;;;;;;;36.80;70.70;;;;;;5094167;28;20349;-69
2022/07/26 09:53:46;;;;;;;;;;;36.70;70.10;;;;;;5092292;28;19908;-70
2022/07/26 09:56:12;;;;;;;;;;;36.40;68.10;;;;;;5092755;28;19926;-71
2022/07/26 09:58:38;;;;;;;;;;;36.40;68.90;;;;;;5093973;28;19904;-70
2022/07/26 10:01:05;;;;;;;;;;;36.40;67.80;;;;;;5093501;28;19973;-70
2022/07/26 10:03:31;;;;;;;;;;;36.30;66.70;;;;;;5093526;28;19918;-70
2022/07/26 10:05:57;;;;;;;;;;;36.30;67.50;;;;;;5093510;28;19904;-70
2022/07/26 10:08:23;;;;;;;;;;;36.30;65.90;;;;;;5093409;28;19904;-69
2022/07/26 10:11:01;;;;;;;;;;;36.40;66.50;;;;;;5093879;28;20348;-70
2022/07/26 10:13:28;;;;;;;;;;;36.30;65.50;;;;;;5094030;28;19950;-70
2022/07/26 10:15:55;;;;;;;;;;;36.30;64.60;;;;;;5093633;28;19914;-70
2022/07/26 10:18:36;;;;;;;;;;;36.30;64.30;;;;;;5094061;28;19910;-70
2022/07/26 10:21:22;;;;;;;;;;;36.30;64.50;;;;;;5093813;28;19916;-69
2022/07/26 10:23:48;;;;;;;;;;;36.30;63.90;;;;;;5092002;28;20283;-69
2022/07/26 10:26:31;;;;;;;;;;;36.00;64.40;;;;;;5094214;28;20416;-69
2022/07/26 10:29:22;;;;;;;;;;;36.00;64.50;;;;;;5093705;28;19912;-69
2022/07/26 10:32:08;;;;;;;;;;;35.80;64.30;;;;;;5083911;28;19904;-69
2022/07/26 10:34:35;;;;;;;;;;;36.00;64.50;;;;;;5093707;28;20477;-70
2022/07/26 10:37:04;;;;;;;;;;;35.90;64.20;;;;;;5094229;28;19944;-70
2022/07/26 10:39:29;;;;;;;;;;;35.90;64.00;;;;;;5093684;28;20016;-70
2022/07/26 10:41:59;;;;;;;;;;;35.90;63.40;;;;;;5093581;28;19950;-69
2022/07/26 10:44:27;;;;;;;;;;;35.90;63.30;;;;;;5093581;28;19927;-70
2022/07/26 10:47:08;;;;;;;;;;;35.90;62.90;;;;;;5092130;28;20057;-70
2022/07/26 10:49:34;;;;;;;;;;;36.00;62.20;;;;;;5093386;28;20356;-70
2022/07/26 10:52:09;;;;;;;;;;;35.90;62.80;;;;;;5092668;28;19904;-70
2022/07/26 10:54:53;;;;;;;;;;;36.00;62.40;;;;;;5093268;28;20308;-69
2022/07/26 10:57:19;;;;;;;;;;;36.00;62.10;;;;;;5091853;28;19911;-70
2022/07/26 10:59:45;;;;;;;;;;;36.10;62.30;;;;;;5093682;28;19912;-70
2022/07/26 11:02:18;;;;;;;;;;;36.30;61.30;;;;;;5093274;28;20352;-70
2022/07/26 11:04:43;;;;;;;;;;;36.10;62.00;;;;;;5091704;28;19949;-70
2022/07/26 11:07:09;;;;;;;;;;;36.10;62.20;;;;;;5092923;28;20216;-70
2022/07/26 11:09:35;;;;;;;;;;;36.20;61.60;;;;;;5093284;28;19918;-70
2022/07/26 11:12:14;;;;;;;;;;;36.30;61.30;;;;;;5093388;28;19903;-70
2022/07/26 11:14:40;;;;;;;;;;;36.20;61.30;;;;;;5093143;28;19910;-70
2022/07/26 11:17:06;;;;;;;;;;;36.10;61.30;;;;;;5093451;28;19990;-70
2022/07/26 11:19:37;;;;;;;;;;;36.10;61.10;;;;;;5093081;28;19916;-70
2022/07/26 11:22:03;;;;;;;;;;;36.10;62.80;;;;;;5094062;28;19997;-70
2022/07/26 11:24:29;;;;;;;;;;;36.10;60.80;;;;;;5093367;28;20380;-70
2022/07/26 11:26:55;;;;;;;;;;;36.30;61.60;;;;;;5093387;28;19958;-70
2022/07/26 11:29:25;;;;;;;;;;;36.50;60.20;;;;;;5093424;28;19904;-70
2022/07/26 11:31:51;;;;;;;;;;;36.60;59.50;;;;;;5093534;28;19910;-70
2022/07/26 11:34:23;;;;;;;;;;;36.50;59.30;;;;;;5093231;28;19904;-70
2022/07/26 11:36:51;;;;;;;;;;;36.60;58.90;;;;;;5093262;28;20343;-70
2022/07/26 11:39:24;;;;;;;;;;;36.70;59.00;;;;;;5092839;28;19918;-70
2022/07/26 11:41:51;;;;;;;;;;;36.80;59.80;;;;;;5092613;28;19904;-70
2022/07/26 11:44:20;;;;;;;;;;;36.80;59.40;;;;;;5092702;28;19911;-70
2022/07/26 11:46:47;;;;;;;;;;;36.70;60.20;;;;;;5092739;28;19903;-70
2022/07/26 11:49:14;;;;;;;;;;;36.90;63.20;;;;;;5091564;28;19927;-71
2022/07/26 11:51:47;;;;;;;;;;;37.00;61.90;;;;;;5092432;28;19915;-70
2022/07/26 11:54:12;;;;;;;;;;;37.00;59.50;;;;;;5092441;28;19908;-70
2022/07/26 11:56:38;;;;;;;;;;;36.90;61.70;;;;;;5092206;28;19905;-70
2022/07/26 11:59:04;;;;;;;;;;;36.60;62.80;;;;;;5092053;28;19990;-70
2022/07/26 12:01:30;;;;;;;;;;;36.50;65.90;;;;;;5092128;28;19919;-70
2022/07/26 12:03:56;;;;;;;;;;;36.40;67.60;;;;;;5092052;28;19933;-70
2022/07/26 12:06:24;;;;;;;;;;;36.50;70.80;;;;;;5091725;28;19904;-70
2022/07/26 12:08:54;;;;;;;;;;;36.50;73.00;;;;;;5092320;28;20302;-70
2022/07/26 12:11:21;;;;;;;;;;;36.60;74.10;;;;;;5092238;28;20336;-70
2022/07/26 12:13:47;;;;;;;;;;;36.70;76.70;;;;;;5090616;28;20360;-70
2022/07/26 12:16:13;;;;;;;;;;;36.60;80.70;;;;;;5092288;28;20003;-70
2022/07/26 12:18:39;;;;;;;;;;;36.10;82.50;;;;;;5092395;28;20286;-70
2022/07/26 12:21:06;;;;;;;;;;;36.30;81.70;;;;;;5095994;28;19998;-70
2022/07/26 12:23:58;;;;;;;;;;;36.00;83.20;;;;;;5096797;28;20202;-70
2022/07/26 12:26:25;;;;;;;;;;;35.80;84.50;;;;;;5092247;28;20290;-69
2022/07/26 12:28:51;;;;;;;;;;;35.80;85.40;;;;;;5094950;28;19998;-71
2022/07/26 12:31:26;;;;;;;;;;;35.80;86.10;;;;;;5096206;28;20368;-70
2022/07/26 12:33:52;;;;;;;;;;;36.10;85.40;;;;;;5094547;28;19915;-71
2022/07/26 12:36:18;;;;;;;;;;;36.10;85.20;;;;;;5094381;28;19950;-69
2022/07/26 12:38:44;;;;;;;;;;;36.10;83.10;;;;;;5095910;28;19908;-70
2022/07/26 12:41:10;;;;;;;;;;;36.30;83.70;;;;;;5096281;28;19923;-71
2022/07/26 12:43:39;;;;;;;;;;;36.50;82.80;;;;;;5095903;28;20292;-70
2022/07/26 12:46:05;;;;;;;;;;;36.50;85.40;;;;;;5096055;28;20003;-70
2022/07/26 12:48:31;;;;;;;;;;;36.60;85.70;;;;;;5095822;28;19940;-70
2022/07/26 12:50:57;;;;;;;;;;;36.50;88.20;;;;;;5095273;28;19948;-70
2022/07/26 12:53:23;;;;;;;;;;;36.50;88.70;;;;;;5095356;28;19904;-70
2022/07/26 12:55:49;;;;;;;;;;;36.60;88.30;;;;;;5093934;28;19904;-70
2022/07/26 12:58:14;;;;;;;;;;;36.60;89.60;;;;;;5095691;28;19998;-70
2022/07/26 13:00:40;;;;;;;;;;;36.30;89.00;;;;;;5095352;28;19912;-70
2022/07/26 13:03:06;;;;;;;;;;;36.00;90.00;;;;;;5095504;28;19999;-70
2022/07/26 13:05:32;;;;;;;;;;;35.80;90.30;;;;;;5095101;28;19947;-70
2022/07/26 13:07:57;;;;;;;;;;;35.80;90.70;;;;;;5095172;28;19919;-70
2022/07/26 13:10:23;;;;;;;;;;;35.80;90.70;;;;;;5095067;28;19904;-69
2022/07/26 13:12:49;;;;;;;;;;;35.90;90.60;;;;;;5095244;28;20019;-70
2022/07/26 13:15:15;;;;;;;;;;;35.90;90.50;;;;;;5094991;28;20276;-71
2022/07/26 13:17:41;;;;;;;;;;;35.70;90.90;;;;;;5095217;28;19915;-70
2022/07/26 13:20:08;;;;;;;;;;;35.60;90.80;;;;;;5094828;28;20376;-71
2022/07/26 13:22:34;;;;;;;;;;;35.90;91.20;;;;;;5095583;28;19961;-71
2022/07/26 13:25:00;;;;;;;;;;;36.10;90.80;;;;;;5095221;28;19958;-71
2022/07/26 13:27:26;;;;;;;;;;;36.30;90.40;;;;;;5095043;28;19939;-70
2022/07/26 13:29:52;;;;;;;;;;;36.40;91.10;;;;;;5094639;28;19903;-70
2022/07/26 13:32:18;;;;;;;;;;;36.10;91.10;;;;;;5093977;28;19927;-70
2022/07/26 13:34:44;;;;;;;;;;;36.20;91.30;;;;;;5094713;28;20198;-69
2022/07/26 13:37:10;;;;;;;;;;;36.30;90.60;;;;;;5094398;28;19911;-69
2022/07/26 13:39:35;;;;;;;;;;;36.40;91.20;;;;;;5093950;28;19915;-69
2022/07/26 13:42:01;;;;;;;;;;;36.50;90.80;;;;;;5094210;28;20000;-70
2022/07/26 13:44:27;;;;;;;;;;;36.70;90.70;;;;;;5094421;28;19904;-71
2022/07/26 13:46:53;;;;;;;;;;;36.70;90.30;;;;;;5094352;28;19904;-71
2022/07/26 13:49:19;;;;;;;;;;;36.80;90.80;;;;;;5093734;28;20074;-70
2022/07/26 13:51:57;;;;;;;;;;;36.70;91.00;;;;;;5093082;28;19922;-69
2022/07/26 13:54:27;;;;;;;;;;;36.50;90.90;;;;;;5093591;28;19995;-69
2022/07/26 13:56:53;;;;;;;;;;;36.30;91.20;;;;;;5091537;28;19904;-70
2022/07/26 13:59:19;;;;;;;;;;;36.30;91.20;;;;;;5093244;28;20344;-69
2022/07/26 14:01:45;;;;;;;;;;;36.40;91.00;;;;;;5093025;28;19912;-70
2022/07/26 14:04:11;;;;;;;;;;;36.60;90.40;;;;;;5093257;28;20003;-71
2022/07/26 14:06:38;;;;;;;;;;;36.60;90.10;;;;;;5093491;28;19913;-70
2022/07/26 14:09:04;;;;;;;;;;;36.70;90.10;;;;;;5093384;28;19904;-70
2022/07/26 14:11:30;;;;;;;;;;;36.80;89.90;;;;;;5093860;28;20245;-70
2022/07/26 14:13:56;;;;;;;;;;;36.70;89.70;;;;;;5093407;28;19904;-70
2022/07/26 14:16:22;;;;;;;;;;;36.60;90.10;;;;;;5093306;28;19904;-70